| time (UTC) | temp F | wind direction | speed MPH | gust MPH | rain 1hr in | rain 24hr in | rain mn in | humidity % | barometer mb |
| 20260507143311 | 60 | 0.0 | 0.0 | 0.02 | 0.02 | 0.02 | 87 | ||
| 20260507142231 | 61 | 0.0 | 0.0 | 0.02 | 0.02 | 0.02 | 85 | ||
| 20260507141231 | 62 | 72 | 0.0 | 2.0 | 0.00 | 0.00 | 0.00 | 80 | |
| 20260507140231 | 63 | 0.0 | 0.0 | 0.00 | 0.00 | 0.00 | 80 | ||
| 20260507135231 | 62 | 0.0 | 0.0 | 0.00 | 0.00 | 0.00 | 81 | ||
| 20260507134231 | 63 | 0.0 | 0.0 | 0.00 | 0.00 | 0.00 | 81 | ||
| 20260507133231 | 63 | 0.0 | 0.0 | 0.00 | 0.00 | 0.00 | 80 | ||
| 20260507132231 | 63 | 0.0 | 0.0 | 0.00 | 0.00 | 0.00 | 80 | ||
| 20260507131231 | 64 | 0.0 | 0.0 | 0.00 | 0.00 | 0.00 | 77 | ||
| 20260507130231 | 65 | 0.0 | 0.0 | 0.00 | 0.00 | 0.00 | 70 | ||
| 20260507125218 | 66 | 0.0 | 0.0 | 0.00 | 0.00 | 0.00 | 67 | ||
| 20260507124218 | 65 | 0.0 | 0.0 | 0.00 | 0.00 | 0.00 | 67 | ||
| 20260507123218 | 65 | 0.0 | 0.0 | 0.00 | 0.00 | 0.00 | 65 | ||
| 20260507122218 | 67 | 294 | 2.0 | 3.0 | 0.00 | 0.00 | 0.00 | 62 | |
| 20260507121230 | 67 | 0.0 | 0.0 | 0.00 | 0.00 | 0.00 | 62 | ||
| 20260507120230 | 66 | 0.0 | 0.0 | 0.00 | 0.00 | 0.00 | 64 | ||
| 20260507115230 | 65 | 342 | 1.0 | 2.0 | 0.00 | 0.00 | 0.00 | 65 | |
| 20260507114351 | 65 | 0.0 | 0.0 | 0.00 | 0.00 | 0.00 | 65 | ||
| 20260507113231 | 65 | 354 | 2.0 | 2.0 | 0.00 | 0.00 | 0.00 | 66 | |
| 20260507112230 | 66 | 0.0 | 0.0 | 0.00 | 0.00 | 0.00 | 65 | ||
| 20260507111231 | 66 | 279 | 3.0 | 4.0 | 0.00 | 0.00 | 0.00 | 64 | |
| 20260507110250 | 67 | 75 | 2.0 | 3.0 | 0.00 | 0.00 | 0.00 | 62 | |
| 20260507105231 | 69 | 282 | 0.0 | 1.0 | 0.00 | 0.00 | 0.00 | 61 | |
| 20260507104251 | 68 | 30 | 1.0 | 2.0 | 0.00 | 0.00 | 0.00 | 61 | |
| 20260507103230 | 68 | 260 | 2.0 | 3.0 | 0.00 | 0.00 | 0.00 | 61 | |
| 20260507102230 | 69 | 0.0 | 0.0 | 0.00 | 0.00 | 0.00 | 60 | ||
| 20260507101311 | 68 | 30 | 1.0 | 2.0 | 0.00 | 0.00 | 0.00 | 61 | |
| 20260507100231 | 66 | 66 | 1.0 | 2.0 | 0.00 | 0.00 | 0.00 | 65 | |
| 20260507095231 | 67 | 0.0 | 0.0 | 0.00 | 0.00 | 0.00 | 64 | ||
| 20260507094230 | 66 | 22 | 3.0 | 3.0 | 0.00 | 0.00 | 0.00 | 65 | |
| 20260507093231 | 65 | 36 | 1.0 | 1.0 | 0.00 | 0.00 | 0.00 | 65 | |
| 20260507092231 | 66 | 42 | 2.0 | 3.0 | 0.00 | 0.00 | 0.00 | 65 | |
| 20260507091231 | 64 | 0.0 | 0.0 | 0.00 | 0.00 | 0.00 | 68 | ||
| 20260507090232 | 65 | 0.0 | 0.0 | 0.00 | 0.00 | 0.00 | 67 | ||
| 20260507085231 | 65 | 0.0 | 0.0 | 0.00 | 0.00 | 0.00 | 67 | ||
| 20260507084231 | 64 | 0.0 | 0.0 | 0.00 | 0.00 | 0.00 | 69 | ||
| 20260507083231 | 63 | 354 | 2.0 | 2.0 | 0.00 | 0.00 | 0.00 | 70 | |
| 20260507082231 | 63 | 48 | 0.0 | 1.0 | 0.00 | 0.00 | 0.00 | 71 | |
| 20260507081251 | 62 | 0.0 | 0.0 | 0.00 | 0.00 | 0.00 | 74 | ||
| 20260507080231 | 62 | 0.0 | 0.0 | 0.00 | 0.00 | 0.00 | 77 | ||
| 20260507075252 | 62 | 0.0 | 0.0 | 0.00 | 0.00 | 0.00 | 77 | ||
| 20260507074231 | 62 | 0.0 | 0.0 | 0.00 | 0.00 | 0.00 | 77 | ||
| 20260507073219 | 61 | 0.0 | 0.0 | 0.00 | 0.00 | 0.00 | 78 | ||
| 20260507072219 | 61 | 0.0 | 0.0 | 0.00 | 0.00 | 0.00 | 77 | ||
| 20260507071239 | 61 | 114 | 1.0 | 2.0 | 0.00 | 0.00 | 0.00 | 77 | |
| 20260507070218 | 60 | 6 | 0.0 | 1.0 | 0.00 | 0.00 | 0.00 | 77 | |
| 20260507065239 | 61 | 0.0 | 0.0 | 0.00 | 0.00 | 0.00 | 76 | ||
| 20260507064241 | 60 | 0.0 | 0.0 | 0.00 | 0.00 | 0.00 | 77 | ||
| 20260507063219 | 60 | 0.0 | 0.0 | 0.00 | 0.00 | 0.00 | 77 | ||
| 20260507062218 | 60 | 0.0 | 0.0 | 0.00 | 0.00 | 0.00 | 79 | ||
| 20260507061219 | 60 | 73 | 0.0 | 1.0 | 0.00 | 0.00 | 0.00 | 79 | |
| 20260507060239 | 59 | 0.0 | 0.0 | 0.00 | 0.00 | 0.00 | 79 | ||
| 20260507055219 | 59 | 0.0 | 0.0 | 0.00 | 0.00 | 0.00 | 79 | ||
| 20260507054218 | 59 | 0.0 | 0.0 | 0.00 | 0.00 | 0.00 | 81 | ||
| 20260507053218 | 59 | 0.0 | 0.0 | 0.00 | 0.00 | 0.00 | 83 | ||
| 20260507052218 | 58 | 0.0 | 0.0 | 0.00 | 0.00 | 0.00 | 82 | ||
| 20260507051219 | 58 | 0.0 | 0.0 | 0.00 | 0.00 | 0.00 | 83 | ||
| 20260507050218 | 57 | 0.0 | 0.0 | 0.00 | 0.00 | 0.00 | 85 | ||
| 20260507045218 | 57 | 12 | 1.0 | 2.0 | 0.00 | 0.00 | 0.00 | 86 | |
| 20260507044219 | 57 | 288 | 0.0 | 1.0 | 0.00 | 0.00 | 0.00 | 84 | |
| 20260507043239 | 57 | 76 | 1.0 | 2.0 | 0.00 | 0.00 | 0.00 | 86 | |
| 20260507042219 | 57 | 0.0 | 0.0 | 0.00 | 0.00 | 0.00 | 87 | ||
| 20260507041239 | 57 | 0.0 | 0.0 | 0.00 | 0.00 | 0.00 | 86 | ||
| 20260507040239 | 57 | 276 | 0.0 | 2.0 | 0.00 | 0.00 | 0.00 | 87 | |
| 20260507035219 | 56 | 0.0 | 0.0 | 0.00 | 0.00 | 0.00 | 87 | ||
| 20260507034219 | 56 | 0.0 | 0.0 | 0.00 | 0.00 | 0.00 | 88 | ||
| 20260507033239 | 56 | 24 | 1.0 | 2.0 | 0.00 | 0.00 | 0.00 | 89 | |
| 20260507032219 | 57 | 0.0 | 0.0 | 0.00 | 0.00 | 0.00 | 87 | ||
| 20260507031219 | 57 | 0.0 | 0.0 | 0.00 | 0.00 | 0.00 | 86 | ||
| 20260507030219 | 57 | 0.0 | 0.0 | 0.00 | 0.00 | 0.00 | 87 | ||
| 20260507025239 | 57 | 102 | 0.0 | 1.0 | 0.00 | 0.00 | 0.00 | 85 | |
| 20260507024219 | 57 | 0.0 | 0.0 | 0.00 | 0.00 | 0.00 | 85 | ||
| 20260507023219 | 58 | 0.0 | 0.0 | 0.00 | 0.00 | 0.00 | 84 | ||
| 20260507022218 | 58 | 0.0 | 0.0 | 0.00 | 0.00 | 0.00 | 85 | ||
| 20260507021219 | 58 | 156 | 0.0 | 1.0 | 0.00 | 0.00 | 0.00 | 85 | |
| 20260507020219 | 58 | 0.0 | 0.0 | 0.00 | 0.00 | 0.00 | 85 | ||
| 20260507015219 | 57 | 0.0 | 0.0 | 0.00 | 0.00 | 0.00 | 86 | ||
| 20260507014219 | 57 | 0.0 | 0.0 | 0.00 | 0.00 | 0.00 | 86 | ||
| 20260507013219 | 58 | 0.0 | 0.0 | 0.00 | 0.00 | 0.00 | 86 | ||
| 20260507012219 | 58 | 96 | 0.0 | 1.0 | 0.00 | 0.00 | 0.00 | 86 | |
| 20260507011219 | 58 | 0.0 | 0.0 | 0.00 | 0.00 | 0.00 | 85 | ||
| 20260507010219 | 59 | 0.0 | 0.0 | 0.00 | 0.00 | 0.00 | 84 | ||
| 20260507005219 | 59 | 0.0 | 0.0 | 0.00 | 0.00 | 0.00 | 83 | ||
| 20260507004219 | 59 | 0.0 | 0.0 | 0.00 | 0.00 | 0.00 | 83 | ||
| 20260507003219 | 59 | 0.0 | 0.0 | 0.00 | 0.00 | 0.00 | 82 | ||
| 20260507002219 | 60 | 0.0 | 0.0 | 0.00 | 0.00 | 0.00 | 81 | ||
| 20260507001219 | 60 | 0.0 | 0.0 | 0.00 | 0.00 | 0.00 | 80 | ||
| 20260507000219 | 60 | 0.0 | 0.0 | 0.00 | 0.00 | 0.00 | 81 | ||
| 20260506235219 | 60 | 59 | 1.0 | 1.0 | 0.00 | 0.00 | 0.00 | 82 | |
| 20260506234219 | 60 | 0.0 | 0.0 | 0.00 | 0.00 | 0.00 | 83 | ||
| 20260506233239 | 60 | 161 | 1.0 | 2.0 | 0.00 | 0.00 | 0.00 | 85 | |
| 20260506232220 | 60 | 168 | 1.0 | 2.0 | 0.00 | 0.00 | 0.00 | 85 | |
| 20260506231219 | 60 | 182 | 1.0 | 2.0 | 0.00 | 0.00 | 0.00 | 85 | |
| 20260506230239 | 60 | 0.0 | 0.0 | 0.00 | 0.00 | 0.00 | 85 | ||
| 20260506225219 | 60 | 0.0 | 0.0 | 0.00 | 0.00 | 0.00 | 83 | ||
| 20260506224219 | 60 | 221 | 1.0 | 3.0 | 0.00 | 0.00 | 0.00 | 81 | |
| 20260506223219 | 60 | 0.0 | 0.0 | 0.00 | 0.00 | 0.00 | 82 | ||
| 20260506222219 | 60 | 0.0 | 0.0 | 0.00 | 0.00 | 0.00 | 81 | ||
| 20260506221219 | 60 | 234 | 0.0 | 2.0 | 0.00 | 0.00 | 0.00 | 82 | |
| 20260506220219 | 60 | 0.0 | 0.0 | 0.00 | 0.00 | 0.00 | 82 | ||
| 20260506215219 | 60 | 0.0 | 0.0 | 0.00 | 0.00 | 0.00 | 83 | ||
| 20260506214219 | 60 | 0.0 | 0.0 | 0.00 | 0.00 | 0.00 | 83 | ||
| 20260506213219 | 60 | 0.0 | 0.0 | 0.00 | 0.00 | 0.00 | 84 | ||
| 20260506212219 | 60 | 0.0 | 0.0 | 0.00 | 0.00 | 0.00 | 84 | ||
| 20260506211219 | 60 | 0.0 | 0.0 | 0.00 | 0.00 | 0.00 | 83 | ||
| 20260506210219 | 60 | 0.0 | 0.0 | 0.00 | 0.00 | 0.00 | 83 | ||
| 20260506205219 | 60 | 0.0 | 0.0 | 0.00 | 0.00 | 0.00 | 85 | ||
| 20260506204219 | 60 | 0.0 | 0.0 | 0.00 | 0.00 | 0.00 | 90 | ||
| 20260506203219 | 59 | 0.0 | 0.0 | 0.00 | 0.00 | 0.00 | 90 | ||
| 20260506202226 | 59 | 0.0 | 0.0 | 0.00 | 0.00 | 0.00 | 90 | ||
| 20260506201219 | 59 | 0.0 | 0.0 | 0.00 | 0.00 | 0.00 | 90 | ||
| 20260506200219 | 60 | 133 | 0.0 | 2.0 | 0.00 | 0.00 | 0.00 | 87 | |
| 20260506195219 | 63 | 243 | 2.0 | 4.0 | 0.00 | 0.00 | 0.00 | 73 | |
| 20260506194220 | 66 | 226 | 2.0 | 2.0 | 0.00 | 0.00 | 0.00 | 65 | |
| 20260506193259 | 66 | 0.0 | 0.0 | 0.00 | 0.00 | 0.00 | 64 | ||
| 20260506192219 | 66 | 52 | 0.0 | 1.0 | 0.00 | 0.00 | 0.00 | 64 | |
| 20260506191219 | 65 | 0.0 | 0.0 | 0.00 | 0.00 | 0.00 | 65 | ||
| 20260506190240 | 65 | 0.0 | 0.0 | 0.00 | 0.00 | 0.00 | 64 | ||
| 20260506185219 | 65 | 0.0 | 0.0 | 0.00 | 0.00 | 0.00 | 65 | ||
| 20260506184219 | 65 | 0.0 | 0.0 | 0.00 | 0.00 | 0.00 | 63 | ||
| 20260506183240 | 65 | 0.0 | 0.0 | 0.00 | 0.00 | 0.00 | 64 | ||
| 20260506182240 | 65 | 0.0 | 0.0 | 0.00 | 0.00 | 0.00 | 64 | ||
| 20260506181219 | 65 | 252 | 1.0 | 2.0 | 0.00 | 0.00 | 0.00 | 63 | |
| 20260506180220 | 66 | 0.0 | 0.0 | 0.00 | 0.00 | 0.00 | 62 | ||
| 20260506175219 | 67 | 0.0 | 0.0 | 0.00 | 0.00 | 0.00 | 59 | ||
| 20260506174220 | 67 | 0.0 | 0.0 | 0.00 | 0.00 | 0.00 | 59 | ||
| 20260506173240 | 68 | 0.0 | 0.0 | 0.00 | 0.00 | 0.00 | 58 | ||
| 20260506172220 | 69 | 0.0 | 0.0 | 0.00 | 0.00 | 0.00 | 57 | ||
| 20260506171219 | 69 | 0.0 | 0.0 | 0.00 | 0.00 | 0.00 | 54 | ||
| 20260506170219 | 70 | 90 | 0.0 | 2.0 | 0.00 | 0.00 | 0.00 | 54 | |
| 20260506165220 | 70 | 0.0 | 0.0 | 0.00 | 0.00 | 0.00 | 53 | ||
| 20260506164220 | 71 | 0.0 | 0.0 | 0.00 | 0.00 | 0.00 | 54 | ||
| 20260506163240 | 71 | 0.0 | 0.0 | 0.00 | 0.00 | 0.00 | 53 | ||
| 20260506162220 | 71 | 0.0 | 0.0 | 0.00 | 0.00 | 0.00 | 52 | ||
| 20260506161220 | 71 | 0.0 | 0.0 | 0.00 | 0.00 | 0.00 | 51 | ||
| 20260506160220 | 72 | 264 | 0.0 | 2.0 | 0.00 | 0.00 | 0.00 | 50 | |
| 20260506155220 | 73 | 137 | 1.0 | 2.0 | 0.00 | 0.00 | 0.00 | 48 | |
| 20260506154220 | 72 | 120 | 0.0 | 1.0 | 0.00 | 0.00 | 0.00 | 48 | |
| 20260506153220 | 72 | 0.0 | 0.0 | 0.00 | 0.00 | 0.00 | 49 | ||
| 20260506152220 | 73 | 276 | 1.0 | 3.0 | 0.00 | 0.00 | 0.00 | 48 | |
| 20260506151220 | 73 | 0.0 | 0.0 | 0.00 | 0.00 | 0.00 | 48 | ||
| 20260506150220 | 73 | 210 | 0.0 | 2.0 | 0.00 | 0.00 | 0.00 | 47 | |
| 20260506145220 | 73 | 0.0 | 0.0 | 0.00 | 0.00 | 0.00 | 46 | ||
| 20260506144220 | 73 | 60 | 0.0 | 1.0 | 0.00 | 0.00 | 0.00 | 44 |